Time;durP1;ratioP1;P1;durP2;ratioP2;P2;SDS_P1;SDS_P2;PMS_P1;PMS_P2;Temp;Humidity;BMP_temperature;BMP_pressure;BME280_temperature;BME280_humidity;BME280_pressure;Samples;Min_cycle;Max_cycle;Signal;HPM_P1;HPM_P2
2021/08/07 00:01:54;;;;;;;1.20;1.20;;;22.40;65.30;;;;;;5110944;28;20173;-64
2021/08/07 00:04:19;;;;;;;1.42;1.33;;;22.30;65.20;;;;;;5111083;28;20222;-64
2021/08/07 00:06:45;;;;;;;1.50;1.40;;;22.30;65.30;;;;;;5111515;28;20226;-64
2021/08/07 00:09:10;;;;;;;1.40;1.30;;;22.30;65.30;;;;;;5110645;28;20180;-63
2021/08/07 00:11:36;;;;;;;1.50;1.40;;;22.30;65.20;;;;;;5111878;28;20494;-63
2021/08/07 00:14:01;;;;;;;2.00;1.40;;;22.30;65.20;;;;;;5127426;28;20168;-63
2021/08/07 00:16:27;;;;;;;1.38;1.27;;;22.30;65.20;;;;;;5111026;28;20216;-63
2021/08/07 00:18:52;;;;;;;1.45;1.35;;;22.30;65.20;;;;;;5116775;28;20165;-63
2021/08/07 00:21:18;;;;;;;1.38;1.27;;;22.30;65.20;;;;;;5130727;28;21050;-62
2021/08/07 00:23:43;;;;;;;1.25;1.15;;;22.30;65.20;;;;;;5131682;28;20213;-62
2021/08/07 00:26:09;;;;;;;1.13;1.08;;;22.30;65.20;;;;;;5131646;28;20208;-63
2021/08/07 00:28:34;;;;;;;1.50;1.33;;;22.30;65.20;;;;;;5115349;28;20562;-63
2021/08/07 00:31:00;;;;;;;1.30;1.20;;;22.30;65.20;;;;;;5111320;28;20233;-64
2021/08/07 00:33:25;;;;;;;1.10;1.10;;;22.30;65.20;;;;;;5110824;28;20249;-64
2021/08/07 00:35:51;;;;;;;1.30;1.20;;;22.30;65.20;;;;;;5113620;28;20180;-64
2021/08/07 00:38:16;;;;;;;1.52;1.30;;;22.30;65.30;;;;;;5114371;28;20177;-64
2021/08/07 00:40:42;;;;;;;1.33;1.23;;;22.30;65.20;;;;;;5114846;28;20207;-64
2021/08/07 00:43:09;;;;;;;1.20;1.15;;;22.30;65.20;;;;;;5114081;28;20268;-64
2021/08/07 00:45:35;;;;;;;1.48;1.38;;;22.30;65.20;;;;;;5129236;27;20212;-63
2021/08/07 00:48:01;;;;;;;1.40;1.30;;;22.30;65.20;;;;;;5135319;27;20272;-63
2021/08/07 00:50:29;;;;;;;1.20;1.10;;;22.30;65.30;;;;;;5134437;27;20650;-65
2021/08/07 00:52:54;;;;;;;1.20;1.20;;;22.30;65.20;;;;;;5117054;27;20203;-63
2021/08/07 00:55:20;;;;;;;1.50;1.13;;;22.30;65.20;;;;;;5134799;27;20196;-62
2021/08/07 00:57:46;;;;;;;1.10;1.00;;;22.30;65.40;;;;;;5116133;27;20484;-64
2021/08/07 01:00:11;;;;;;;1.33;1.20;;;22.30;65.30;;;;;;5116524;27;20724;-63
2021/08/07 01:02:37;;;;;;;1.00;1.00;;;22.30;65.40;;;;;;5134802;27;20165;-63
2021/08/07 01:05:19;;;;;;;1.40;1.17;;;22.20;65.20;;;;;;5098644;27;20619;-63
2021/08/07 01:08:13;;;;;;;1.00;1.00;;;22.30;65.40;;;;;;5101426;27;20208;-64
2021/08/07 01:11:06;;;;;;;1.38;1.30;;;22.20;65.30;;;;;;5099811;27;20172;-63
2021/08/07 01:13:36;;;;;;;1.20;1.10;;;22.20;65.20;;;;;;5134583;27;20173;-63
2021/08/07 01:16:05;;;;;;;1.52;1.20;;;22.30;65.30;;;;;;5084055;28;20181;-64
2021/08/07 01:18:30;;;;;;;1.30;1.20;;;22.20;65.20;;;;;;5113090;28;20222;-63
2021/08/07 01:20:56;;;;;;;1.13;1.10;;;22.20;65.20;;;;;;5113866;28;20618;-63
2021/08/07 01:23:21;;;;;;;1.42;1.33;;;22.10;65.20;;;;;;5095579;28;20198;-63
2021/08/07 01:25:57;;;;;;;1.38;1.17;;;22.20;65.30;;;;;;5113278;28;20209;-62
2021/08/07 01:28:24;;;;;;;1.08;1.08;;;22.20;65.30;;;;;;5113648;28;20172;-64
2021/08/07 01:30:50;;;;;;;1.50;1.40;;;22.20;65.40;;;;;;5113842;28;20256;-64
2021/08/07 01:33:16;;;;;;;1.40;1.30;;;22.20;65.30;;;;;;5112737;28;20260;-65
2021/08/07 01:35:42;;;;;;;1.10;1.10;;;22.20;65.30;;;;;;5113994;28;20172;-64
2021/08/07 01:38:08;;;;;;;1.30;1.20;;;22.20;65.30;;;;;;5113904;28;20640;-64
2021/08/07 01:40:33;;;;;;;1.25;1.15;;;22.20;65.30;;;;;;5094330;28;20622;-64
2021/08/07 01:42:59;;;;;;;1.45;1.35;;;22.20;65.30;;;;;;5113672;28;20264;-63
2021/08/07 01:45:24;;;;;;;1.40;1.30;;;22.20;65.40;;;;;;5112526;28;20218;-63
2021/08/07 01:48:07;;;;;;;1.35;1.25;;;22.20;65.40;;;;;;5113059;28;20184;-63
2021/08/07 01:50:47;;;;;;;1.33;1.23;;;22.20;65.80;;;;;;5078218;28;20181;-63
2021/08/07 01:53:27;;;;;;;0.95;0.95;;;22.20;65.30;;;;;;5094467;28;20196;-64
2021/08/07 01:56:05;;;;;;;1.05;1.05;;;22.20;65.40;;;;;;5096890;28;20195;-64
2021/08/07 01:58:55;;;;;;;1.13;1.00;;;22.20;65.40;;;;;;5095542;28;20591;-63
2021/08/07 02:01:24;;;;;;;1.02;1.02;;;22.20;65.40;;;;;;5112226;28;20314;-63
2021/08/07 02:03:53;;;;;;;1.27;1.17;;;22.20;65.40;;;;;;5113088;28;20504;-64
2021/08/07 02:06:19;;;;;;;1.35;1.25;;;22.20;65.40;;;;;;5077528;28;20288;-64
2021/08/07 02:08:44;;;;;;;1.00;1.00;;;22.20;65.30;;;;;;5094178;28;20248;-64
2021/08/07 02:11:10;;;;;;;0.98;0.98;;;22.20;65.40;;;;;;5112807;28;20169;-64
2021/08/07 02:13:35;;;;;;;1.45;1.20;;;22.10;65.30;;;;;;5093437;28;20180;-64
2021/08/07 02:16:02;;;;;;;1.17;0.98;;;22.10;65.30;;;;;;5094665;28;20173;-63
2021/08/07 02:18:27;;;;;;;1.17;1.10;;;22.10;65.30;;;;;;5094441;28;20169;-63
2021/08/07 02:20:53;;;;;;;1.15;1.13;;;22.10;65.30;;;;;;5111773;28;20224;-63
2021/08/07 02:23:19;;;;;;;1.00;1.00;;;22.20;65.40;;;;;;5093990;28;20177;-63
2021/08/07 02:25:46;;;;;;;1.08;1.08;;;22.10;65.30;;;;;;5077158;28;20296;-63
2021/08/07 02:28:12;;;;;;;1.10;1.10;;;22.10;65.30;;;;;;5111995;28;20200;-63
2021/08/07 02:30:38;;;;;;;1.17;1.10;;;22.10;65.30;;;;;;5112247;28;20600;-63
2021/08/07 02:33:04;;;;;;;1.45;1.35;;;22.10;65.30;;;;;;5112381;28;20642;-64
2021/08/07 02:35:30;;;;;;;1.67;1.00;;;22.10;65.30;;;;;;5076133;28;20256;-64
2021/08/07 02:37:56;;;;;;;1.00;1.00;;;22.10;65.30;;;;;;5112563;28;20222;-64
2021/08/07 02:40:21;;;;;;;1.13;1.00;;;22.10;65.30;;;;;;5093818;28;20176;-64
2021/08/07 02:42:47;;;;;;;1.50;1.20;;;22.10;65.30;;;;;;5076809;28;20306;-64
2021/08/07 02:45:12;;;;;;;1.23;1.13;;;22.10;65.30;;;;;;5077143;28;20292;-63
2021/08/07 02:47:38;;;;;;;1.35;1.15;;;22.10;65.40;;;;;;5076802;28;20607;-63
2021/08/07 02:50:04;;;;;;;1.30;1.20;;;22.10;65.40;;;;;;5093133;28;20177;-64
2021/08/07 02:52:29;;;;;;;1.10;1.10;;;22.10;65.40;;;;;;5111757;28;20176;-63
2021/08/07 02:54:56;;;;;;;1.20;1.10;;;22.10;65.40;;;;;;5112215;28;20173;-63
2021/08/07 02:57:21;;;;;;;1.00;1.00;;;22.10;65.40;;;;;;5092694;28;20525;-63
2021/08/07 02:59:47;;;;;;;1.13;1.02;;;22.10;65.40;;;;;;5093881;28;20184;-64
2021/08/07 03:02:12;;;;;;;1.13;1.13;;;22.10;65.40;;;;;;5093841;28;20169;-64
2021/08/07 03:04:38;;;;;;;1.13;1.13;;;22.10;65.40;;;;;;5110898;28;20256;-64
2021/08/07 03:07:03;;;;;;;1.30;1.20;;;22.10;65.40;;;;;;5112179;28;20181;-64
2021/08/07 03:09:29;;;;;;;1.30;1.20;;;22.10;65.40;;;;;;5111655;28;20569;-64
2021/08/07 03:11:54;;;;;;;1.10;1.10;;;22.10;65.40;;;;;;5111295;28;20184;-63
2021/08/07 03:14:20;;;;;;;1.45;1.10;;;22.00;65.30;;;;;;5111537;28;20184;-63
2021/08/07 03:16:45;;;;;;;1.00;0.90;;;22.00;65.30;;;;;;5111804;28;20249;-63
2021/08/07 03:19:11;;;;;;;1.17;1.08;;;22.00;65.40;;;;;;5111099;28;20260;-63
2021/08/07 03:21:36;;;;;;;1.08;1.00;;;22.00;65.40;;;;;;5111195;28;20274;-63
2021/08/07 03:24:02;;;;;;;1.20;1.00;;;22.00;65.40;;;;;;5111108;28;20169;-63
2021/08/07 03:26:27;;;;;;;1.00;1.00;;;22.00;65.40;;;;;;5111363;28;20216;-62
2021/08/07 03:28:53;;;;;;;1.00;1.00;;;22.00;65.40;;;;;;5111779;28;20165;-63
2021/08/07 03:31:18;;;;;;;1.15;1.00;;;22.00;65.40;;;;;;5110779;28;20245;-63
2021/08/07 03:33:44;;;;;;;1.58;1.20;;;22.00;65.40;;;;;;5111511;28;20180;-64
2021/08/07 03:36:10;;;;;;;1.00;1.00;;;22.00;65.40;;;;;;5111392;28;20276;-64
2021/08/07 03:38:35;;;;;;;1.05;1.00;;;22.00;65.40;;;;;;5110667;28;20588;-63
2021/08/07 03:41:01;;;;;;;2.03;1.10;;;22.00;65.40;;;;;;5111651;28;20185;-63
2021/08/07 03:43:26;;;;;;;1.10;1.10;;;22.00;65.40;;;;;;5111260;28;20181;-63
2021/08/07 03:45:52;;;;;;;1.13;1.10;;;22.00;65.40;;;;;;5110712;28;20208;-63
2021/08/07 03:48:17;;;;;;;1.10;1.00;;;22.00;65.40;;;;;;5111209;28;20264;-62
2021/08/07 03:50:43;;;;;;;1.10;1.10;;;22.00;65.40;;;;;;5111448;28;20173;-63
2021/08/07 03:53:08;;;;;;;1.30;1.20;;;22.00;65.40;;;;;;5110600;28;20177;-63
2021/08/07 03:55:34;;;;;;;1.30;1.20;;;22.00;65.40;;;;;;5111297;28;20169;-63
2021/08/07 03:57:59;;;;;;;0.93;0.93;;;21.90;66.30;;;;;;5111522;28;20169;-63
2021/08/07 04:00:30;;;;;;;1.10;1.10;;;22.00;65.50;;;;;;5110395;28;20337;-63
2021/08/07 04:02:55;;;;;;;1.10;1.10;;;22.00;65.50;;;;;;5111315;28;20197;-64
2021/08/07 04:05:21;;;;;;;0.93;0.90;;;22.00;65.40;;;;;;5110787;28;20675;-63
2021/08/07 04:07:47;;;;;;;1.00;1.00;;;22.00;65.40;;;;;;5110453;28;20177;-63
2021/08/07 04:10:13;;;;;;;1.13;1.02;;;22.00;65.50;;;;;;5113786;28;20173;-63
2021/08/07 04:12:38;;;;;;;1.20;1.20;;;22.00;65.50;;;;;;5114974;28;20297;-63
2021/08/07 04:15:05;;;;;;;0.90;0.90;;;21.90;65.40;;;;;;5114535;28;20533;-63
2021/08/07 04:17:30;;;;;;;1.02;1.02;;;21.90;65.40;;;;;;5114973;28;20234;-63
2021/08/07 04:19:56;;;;;;;1.10;1.10;;;21.90;65.40;;;;;;5114614;28;20181;-63
2021/08/07 04:22:21;;;;;;;1.50;1.10;;;21.90;65.40;;;;;;5114115;28;20250;-62
2021/08/07 04:24:46;;;;;;;2.15;1.27;;;21.90;65.40;;;;;;5114884;28;20200;-62
2021/08/07 04:27:13;;;;;;;1.35;1.30;;;21.90;65.40;;;;;;5114222;28;20238;-63
2021/08/07 04:29:38;;;;;;;0.85;0.85;;;21.90;65.40;;;;;;5114579;28;20173;-63
2021/08/07 04:32:04;;;;;;;1.15;1.15;;;22.00;65.50;;;;;;5114844;28;20173;-63
2021/08/07 04:34:30;;;;;;;1.30;1.20;;;21.90;65.40;;;;;;5113357;28;20530;-64
2021/08/07 04:36:55;;;;;;;1.17;1.05;;;21.90;65.40;;;;;;5114847;28;20177;-64
2021/08/07 04:39:21;;;;;;;1.70;1.15;;;21.90;65.40;;;;;;5114367;28;20181;-63
2021/08/07 04:41:46;;;;;;;2.15;0.98;;;21.90;65.40;;;;;;5113874;28;20653;-63
2021/08/07 04:44:12;;;;;;;1.00;0.90;;;21.90;65.40;;;;;;5114603;28;20619;-63
2021/08/07 04:46:37;;;;;;;1.17;1.17;;;21.90;65.40;;;;;;5113880;28;20209;-62
2021/08/07 04:49:03;;;;;;;1.00;0.95;;;21.90;65.50;;;;;;5112835;28;20185;-63
2021/08/07 04:51:28;;;;;;;1.20;1.10;;;21.90;65.40;;;;;;5113953;28;20200;-63
2021/08/07 04:53:54;;;;;;;1.15;1.10;;;21.90;65.30;;;;;;5114090;28;20478;-64
2021/08/07 04:56:19;;;;;;;2.15;1.48;;;21.90;65.40;;;;;;5113035;28;20173;-64
2021/08/07 04:58:45;;;;;;;1.20;1.20;;;21.90;65.40;;;;;;5114185;28;20269;-63
2021/08/07 05:01:11;;;;;;;1.15;1.00;;;21.90;65.40;;;;;;5114110;28;20568;-63
2021/08/07 05:03:36;;;;;;;1.67;1.10;;;21.90;65.30;;;;;;5113045;28;20196;-64
2021/08/07 05:06:05;;;;;;;0.90;0.90;;;21.90;65.40;;;;;;5113951;28;20254;-65
2021/08/07 05:08:30;;;;;;;1.00;0.90;;;21.90;65.40;;;;;;5113698;28;20272;-63
2021/08/07 05:10:56;;;;;;;1.08;0.90;;;21.90;65.30;;;;;;5113179;28;20268;-65
2021/08/07 05:13:21;;;;;;;1.10;1.00;;;21.90;65.30;;;;;;5113686;28;20638;-63
2021/08/07 05:15:47;;;;;;;1.05;0.95;;;21.90;65.40;;;;;;5113861;28;20180;-63
2021/08/07 05:18:12;;;;;;;1.13;0.90;;;21.90;65.20;;;;;;5113128;28;20173;-63
2021/08/07 05:20:38;;;;;;;1.02;0.95;;;22.00;65.30;;;;;;5113169;28;20224;-63
2021/08/07 05:23:04;;;;;;;0.88;0.88;;;22.00;65.30;;;;;;5113485;28;20519;-63
2021/08/07 05:25:29;;;;;;;1.20;1.10;;;22.00;65.20;;;;;;5112632;28;20236;-63
2021/08/07 05:27:54;;;;;;;0.90;0.90;;;22.00;65.20;;;;;;5113633;28;20242;-63
2021/08/07 05:30:20;;;;;;;1.00;0.90;;;22.00;65.10;;;;;;5113418;28;20182;-64
2021/08/07 05:32:46;;;;;;;1.08;1.05;;;22.00;65.10;;;;;;5112958;28;20200;-64
2021/08/07 05:35:12;;;;;;;1.25;1.13;;;22.10;65.20;;;;;;5114049;28;20234;-64
2021/08/07 05:37:40;;;;;;;0.95;0.90;;;22.00;65.10;;;;;;5112981;28;20612;-64
2021/08/07 05:40:10;;;;;;;1.20;1.00;;;22.00;65.10;;;;;;5113683;28;20256;-63
2021/08/07 05:42:35;;;;;;;1.00;1.00;;;22.00;65.10;;;;;;5113331;28;20287;-63
2021/08/07 05:45:01;;;;;;;1.33;1.05;;;22.00;65.10;;;;;;5112839;28;20279;-64
2021/08/07 05:47:27;;;;;;;0.88;0.88;;;22.00;65.10;;;;;;5113107;28;20189;-63
2021/08/07 05:49:52;;;;;;;1.38;1.30;;;22.00;65.10;;;;;;5113775;28;20161;-63
2021/08/07 05:52:18;;;;;;;1.13;1.13;;;22.00;65.20;;;;;;5112387;28;20234;-63
2021/08/07 05:54:43;;;;;;;1.15;1.00;;;22.00;65.10;;;;;;5113474;28;20165;-63
2021/08/07 05:57:08;;;;;;;1.25;1.15;;;22.00;65.10;;;;;;5113482;28;20631;-62
2021/08/07 05:59:34;;;;;;;1.30;1.10;;;22.10;65.10;;;;;;5112345;28;20173;-64
2021/08/07 06:02:00;;;;;;;0.80;0.80;;;22.00;65.10;;;;;;5113269;28;20180;-65
2021/08/07 06:04:25;;;;;;;1.27;1.17;;;22.10;65.10;;;;;;5113270;28;20185;-63
2021/08/07 06:06:51;;;;;;;0.70;0.70;;;22.10;65.10;;;;;;5112793;28;20280;-64
2021/08/07 06:09:16;;;;;;;1.67;1.10;;;22.00;65.10;;;;;;5112931;28;20177;-65
2021/08/07 06:11:42;;;;;;;1.08;1.05;;;22.10;65.10;;;;;;5113228;28;20623;-64
2021/08/07 06:14:07;;;;;;;1.05;0.95;;;22.10;65.20;;;;;;5112418;28;20201;-65
2021/08/07 06:16:36;;;;;;;1.02;1.02;;;22.10;65.20;;;;;;5112683;28;20165;-65
2021/08/07 06:19:04;;;;;;;2.10;1.02;;;22.10;65.20;;;;;;5113413;28;20203;-64
2021/08/07 06:21:30;;;;;;;0.95;0.88;;;22.10;65.20;;;;;;5111845;28;20220;-64
2021/08/07 06:23:58;;;;;;;0.95;0.95;;;22.10;65.10;;;;;;5113092;28;20241;-63
2021/08/07 06:26:24;;;;;;;1.33;1.00;;;22.10;65.00;;;;;;5112532;28;20665;-64
2021/08/07 06:28:51;;;;;;;1.67;1.10;;;22.10;64.90;;;;;;5093824;28;20197;-64
2021/08/07 06:31:19;;;;;;;0.82;0.82;;;22.20;64.80;;;;;;5111958;28;20259;-64
2021/08/07 06:33:44;;;;;;;1.35;1.10;;;22.20;64.70;;;;;;5112153;28;20700;-65
2021/08/07 06:36:10;;;;;;;0.90;0.90;;;22.30;64.60;;;;;;5111867;28;20255;-65
2021/08/07 06:38:35;;;;;;;1.70;1.10;;;22.30;64.60;;;;;;5112265;28;20271;-64
2021/08/07 06:41:01;;;;;;;1.55;0.93;;;22.30;64.60;;;;;;5111766;28;20181;-63
2021/08/07 06:43:26;;;;;;;1.23;1.13;;;22.20;64.70;;;;;;5112072;28;20642;-63
2021/08/07 06:45:52;;;;;;;0.98;0.98;;;22.20;64.70;;;;;;5112318;28;20659;-63
2021/08/07 06:48:17;;;;;;;1.30;1.10;;;22.30;64.70;;;;;;5111400;28;20495;-63
2021/08/07 06:50:43;;;;;;;1.33;1.05;;;22.30;64.60;;;;;;5112219;28;20576;-63
2021/08/07 06:53:08;;;;;;;1.35;1.25;;;22.30;64.60;;;;;;5111941;28;20218;-64
2021/08/07 06:55:34;;;;;;;0.90;0.90;;;22.30;64.50;;;;;;5111153;28;20183;-63
2021/08/07 06:57:59;;;;;;;0.90;0.90;;;22.30;64.60;;;;;;5111934;28;20169;-63
2021/08/07 07:00:25;;;;;;;1.00;0.90;;;22.30;64.50;;;;;;5111528;28;20185;-63
2021/08/07 07:02:51;;;;;;;0.98;0.90;;;22.40;64.50;;;;;;5111938;28;20165;-63
2021/08/07 07:05:19;;;;;;;0.80;0.80;;;22.40;64.50;;;;;;5111520;28;20697;-64
2021/08/07 07:07:45;;;;;;;1.08;0.85;;;22.40;64.50;;;;;;5112129;28;20173;-65
2021/08/07 07:10:12;;;;;;;0.75;0.75;;;22.40;64.50;;;;;;5111221;28;20180;-65
2021/08/07 07:12:37;;;;;;;1.02;0.95;;;22.40;64.60;;;;;;5111473;28;20195;-65
2021/08/07 07:15:03;;;;;;;1.45;0.93;;;22.30;64.60;;;;;;5111813;28;20173;-65
2021/08/07 07:17:29;;;;;;;0.80;0.80;;;22.30;64.70;;;;;;5110865;28;20180;-65
2021/08/07 07:19:55;;;;;;;1.00;1.00;;;22.30;64.70;;;;;;5111570;28;20528;-63
2021/08/07 07:22:21;;;;;;;1.02;1.02;;;22.40;64.80;;;;;;5111566;28;20185;-65
2021/08/07 07:24:46;;;;;;;0.95;0.95;;;22.40;64.70;;;;;;5110986;28;20568;-67
2021/08/07 07:27:12;;;;;;;0.70;0.70;;;22.40;64.50;;;;;;5111800;28;20173;-64
2021/08/07 07:29:39;;;;;;;1.00;0.90;;;22.40;64.50;;;;;;5111461;28;20172;-65
2021/08/07 07:32:05;;;;;;;2.10;1.13;;;22.50;64.50;;;;;;5111166;28;20177;-67
2021/08/07 07:34:31;;;;;;;2.22;1.13;;;22.50;64.50;;;;;;5111661;28;20181;-65
2021/08/07 07:36:57;;;;;;;1.85;1.20;;;22.50;64.80;;;;;;5112059;28;20584;-63
2021/08/07 07:39:23;;;;;;;1.38;0.88;;;22.60;64.60;;;;;;5110460;28;20643;-63
2021/08/07 07:41:48;;;;;;;1.52;0.98;;;22.60;64.50;;;;;;5110911;28;20212;-63
2021/08/07 07:44:14;;;;;;;1.38;1.27;;;22.60;64.50;;;;;;5113616;28;20165;-63
2021/08/07 07:46:39;;;;;;;2.28;1.17;;;22.60;64.50;;;;;;5115365;28;20236;-63
2021/08/07 07:49:05;;;;;;;1.20;0.85;;;22.60;64.50;;;;;;5115648;28;20165;-63
2021/08/07 07:51:33;;;;;;;1.08;0.98;;;22.60;64.50;;;;;;5114747;28;20173;-63
2021/08/07 07:53:59;;;;;;;1.30;1.17;;;22.60;64.40;;;;;;5115745;28;20173;-64
2021/08/07 07:56:24;;;;;;;2.10;1.35;;;22.60;64.40;;;;;;5115251;28;20474;-63
2021/08/07 07:58:50;;;;;;;2.15;1.13;;;22.60;64.40;;;;;;5115052;28;20290;-64
2021/08/07 08:01:16;;;;;;;1.67;1.30;;;22.60;64.30;;;;;;5115401;28;20188;-63
2021/08/07 08:03:41;;;;;;;2.08;1.70;;;22.70;64.40;;;;;;5115532;28;20174;-63
2021/08/07 08:06:07;;;;;;;2.80;1.50;;;22.60;64.40;;;;;;5114617;28;20220;-63
2021/08/07 08:08:32;;;;;;;2.00;1.02;;;22.60;64.50;;;;;;5115071;28;20172;-63
2021/08/07 08:10:58;;;;;;;3.25;1.35;;;22.70;64.50;;;;;;5115090;28;20176;-64
2021/08/07 08:13:23;;;;;;;2.47;1.17;;;22.70;64.50;;;;;;5114504;28;20242;-63
2021/08/07 08:15:49;;;;;;;2.03;1.40;;;22.70;64.40;;;;;;5115356;28;20230;-63
2021/08/07 08:18:14;;;;;;;2.15;1.55;;;22.70;64.40;;;;;;5115229;28;20161;-62
2021/08/07 08:20:40;;;;;;;1.40;1.30;;;22.70;64.30;;;;;;5114183;28;20248;-62
2021/08/07 08:23:05;;;;;;;2.42;1.42;;;22.80;65.20;;;;;;5115186;28;20237;-63
2021/08/07 08:25:31;;;;;;;3.38;1.65;;;22.80;65.20;;;;;;5114802;28;20278;-62
2021/08/07 08:27:56;;;;;;;1.83;1.25;;;22.80;64.30;;;;;;5114682;28;20187;-62
2021/08/07 08:30:22;;;;;;;2.58;1.73;;;22.80;64.20;;;;;;5114660;28;20275;-63
2021/08/07 08:32:48;;;;;;;2.13;1.38;;;22.80;64.20;;;;;;5115208;28;20260;-63
2021/08/07 08:35:16;;;;;;;3.45;1.50;;;22.90;64.30;;;;;;5114420;28;20538;-63
2021/08/07 08:37:42;;;;;;;3.22;1.80;;;22.90;64.30;;;;;;5114764;28;20276;-61
2021/08/07 08:40:08;;;;;;;2.45;2.00;;;22.90;64.30;;;;;;5114788;28;20177;-61
2021/08/07 08:42:33;;;;;;;1.55;1.20;;;22.90;64.50;;;;;;5113983;28;20169;-61
2021/08/07 08:44:59;;;;;;;3.85;1.75;;;22.90;64.50;;;;;;5114871;28;20514;-62
2021/08/07 08:47:25;;;;;;;2.72;1.63;;;23.00;64.70;;;;;;5114230;28;20729;-61
2021/08/07 08:49:51;;;;;;;3.22;1.42;;;23.00;64.80;;;;;;5114955;28;20173;-62
2021/08/07 08:52:24;;;;;;;4.10;1.98;;;23.00;64.80;;;;;;5114587;28;20179;-62
2021/08/07 08:54:49;;;;;;;1.65;1.52;;;23.10;64.80;;;;;;5113485;28;20173;-61
2021/08/07 08:57:16;;;;;;;2.97;1.70;;;23.10;64.80;;;;;;5115081;28;20545;-61
2021/08/07 08:59:43;;;;;;;2.40;1.90;;;23.00;64.90;;;;;;5096963;28;20180;-61
2021/08/07 09:02:08;;;;;;;2.50;1.52;;;23.10;65.00;;;;;;5113950;28;20657;-61
2021/08/07 09:04:34;;;;;;;3.15;1.92;;;23.10;65.00;;;;;;5114442;28;20169;-61
2021/08/07 09:06:59;;;;;;;2.25;1.55;;;23.10;65.10;;;;;;5096227;28;20208;-63
2021/08/07 09:09:41;;;;;;;2.75;1.77;;;23.00;65.20;;;;;;5113447;28;20169;-64
2021/08/07 09:12:07;;;;;;;1.98;1.60;;;23.00;65.40;;;;;;5114777;28;20181;-63
2021/08/07 09:14:56;;;;;;;3.03;2.03;;;23.00;65.50;;;;;;5114332;28;20177;-62
2021/08/07 09:17:22;;;;;;;2.70;1.42;;;23.00;65.60;;;;;;5114432;27;20174;-61
2021/08/07 09:19:52;;;;;;;6.07;2.55;;;22.90;65.70;;;;;;5124174;27;20207;-62
2021/08/07 09:22:21;;;;;;;3.05;1.50;;;23.00;65.50;;;;;;5123597;27;20176;-61
2021/08/07 09:25:09;;;;;;;2.33;1.60;;;23.00;65.30;;;;;;5134402;27;20175;-62
2021/08/07 09:27:46;;;;;;;3.92;1.75;;;23.00;65.40;;;;;;5116808;27;20173;-62
2021/08/07 09:30:17;;;;;;;2.08;1.40;;;23.00;65.20;;;;;;5113469;28;20172;-62
2021/08/07 09:32:56;;;;;;;2.28;1.60;;;23.10;65.10;;;;;;5114640;28;20181;-63
2021/08/07 09:35:26;;;;;;;1.98;1.75;;;23.10;65.10;;;;;;5125447;27;20618;-68
2021/08/07 09:38:11;;;;;;;8.02;2.17;;;23.20;65.00;;;;;;5134244;27;20531;-63
2021/08/07 09:40:49;;;;;;;2.83;1.90;;;23.20;64.90;;;;;;5134485;27;20404;-62
2021/08/07 09:43:17;;;;;;;2.30;1.70;;;23.20;64.80;;;;;;5134762;27;20171;-63
2021/08/07 09:45:42;;;;;;;1.98;1.42;;;23.20;65.00;;;;;;5134184;27;20283;-62
2021/08/07 09:48:12;;;;;;;2.75;1.70;;;23.10;65.00;;;;;;5134818;27;20314;-62
2021/08/07 09:50:38;;;;;;;2.55;1.67;;;23.10;65.10;;;;;;5134207;27;20228;-62
2021/08/07 09:53:04;;;;;;;1.90;1.70;;;23.10;65.10;;;;;;5116620;27;20581;-62
2021/08/07 09:55:30;;;;;;;3.30;1.50;;;23.10;65.00;;;;;;5113701;28;20177;-62
2021/08/07 09:58:04;;;;;;;1.75;1.60;;;23.20;64.70;;;;;;5113441;28;20173;-62
2021/08/07 10:00:42;;;;;;;3.67;1.77;;;23.30;64.50;;;;;;5113755;28;20611;-62
2021/08/07 10:03:19;;;;;;;2.15;1.30;;;23.40;64.40;;;;;;5113809;28;20542;-62
2021/08/07 10:05:45;;;;;;;3.22;1.50;;;23.40;64.30;;;;;;5113065;28;20204;-62
2021/08/07 10:08:11;;;;;;;4.03;1.70;;;23.40;64.30;;;;;;5113708;28;20179;-62
2021/08/07 10:10:37;;;;;;;1.70;1.38;;;23.40;64.20;;;;;;5113343;28;20177;-61
2021/08/07 10:13:02;;;;;;;2.60;1.60;;;23.40;65.00;;;;;;5112962;28;20207;-65
2021/08/07 10:15:28;;;;;;;1.42;1.33;;;23.50;64.20;;;;;;5113158;28;20699;-63
2021/08/07 10:17:57;;;;;;;2.40;1.30;;;23.50;64.30;;;;;;5095098;28;20184;-62
2021/08/07 10:20:23;;;;;;;2.42;1.73;;;23.40;64.50;;;;;;5112172;28;20225;-62
2021/08/07 10:22:51;;;;;;;2.03;1.50;;;23.40;64.40;;;;;;5113214;28;20646;-65
2021/08/07 10:25:17;;;;;;;4.68;2.30;;;23.30;64.50;;;;;;5078407;27;20207;-63
2021/08/07 10:27:42;;;;;;;2.42;1.58;;;23.40;64.40;;;;;;5114695;27;20581;-64
2021/08/07 10:30:11;;;;;;;2.40;1.70;;;23.40;64.40;;;;;;5115648;27;20193;-65
2021/08/07 10:32:44;;;;;;;3.50;1.67;;;23.40;64.30;;;;;;5133475;27;20377;-65
2021/08/07 10:35:16;;;;;;;2.50;1.98;;;23.40;64.50;;;;;;5132952;27;20180;-66
2021/08/07 10:37:41;;;;;;;3.53;1.45;;;23.30;64.70;;;;;;5133512;27;20622;-64
2021/08/07 10:40:08;;;;;;;2.28;1.50;;;23.20;64.80;;;;;;5132676;27;20182;-64
2021/08/07 10:42:34;;;;;;;3.97;1.95;;;23.20;64.90;;;;;;5133407;27;20164;-65
2021/08/07 10:45:01;;;;;;;1.40;1.30;;;23.30;64.70;;;;;;5115053;27;20183;-64
2021/08/07 10:47:40;;;;;;;2.78;1.70;;;23.40;64.50;;;;;;5132258;27;20737;-63
2021/08/07 10:50:24;;;;;;;2.78;1.52;;;23.50;64.30;;;;;;5133736;27;20487;-65
2021/08/07 10:52:52;;;;;;;2.65;1.52;;;23.50;64.20;;;;;;5133316;27;20173;-73
2021/08/07 10:55:45;;;;;;;3.50;1.30;;;23.50;64.00;;;;;;5132075;27;20638;-62
2021/08/07 10:58:42;;;;;;;1.52;1.40;;;23.50;64.20;;;;;;5120363;27;20185;-63
2021/08/07 11:01:23;;;;;;;2.92;1.60;;;23.40;64.30;;;;;;5114497;27;20302;-63
2021/08/07 11:04:09;;;;;;;2.95;1.50;;;23.40;64.60;;;;;;5112099;28;20264;-64
2021/08/07 11:06:37;;;;;;;3.88;1.60;;;23.40;64.70;;;;;;5111574;28;20402;-65
2021/08/07 11:09:32;;;;;;;4.15;1.75;;;23.30;65.60;;;;;;5111737;28;20165;-65
2021/08/07 11:12:07;;;;;;;6.30;1.50;;;23.50;64.50;;;;;;5112397;28;20173;-65
2021/08/07 11:14:35;;;;;;;2.88;1.75;;;23.60;64.10;;;;;;5111818;28;20169;-64
2021/08/07 11:17:04;;;;;;;4.03;1.50;;;23.50;64.10;;;;;;5111657;28;20173;-64
2021/08/07 11:19:54;;;;;;;2.55;1.48;;;23.60;64.20;;;;;;5111551;28;20169;-64
2021/08/07 11:22:33;;;;;;;2.20;1.73;;;23.60;64.00;;;;;;5111283;28;20671;-64
2021/08/07 11:24:59;;;;;;;7.65;1.70;;;23.70;64.10;;;;;;5112064;28;20268;-65
2021/08/07 11:27:48;;;;;;;8.65;1.65;;;23.70;64.00;;;;;;5130767;27;20638;-65
2021/08/07 11:30:22;;;;;;;5.22;2.20;;;23.70;63.90;;;;;;5132173;27;20195;-66
2021/08/07 11:33:00;;;;;;;5.28;1.60;;;23.70;64.00;;;;;;5132780;28;20171;-65
2021/08/07 11:38:13;;;;;;;5.25;1.63;;;23.80;64.10;;;;;;5132273;28;20294;-65
2021/08/07 11:40:54;;;;;;;3.03;1.13;;;23.80;64.00;;;;;;5132664;28;20219;-66
2021/08/07 11:43:25;;;;;;;2.10;1.23;;;23.80;64.00;;;;;;5131916;28;20203;-72
2021/08/07 11:45:53;;;;;;;3.78;1.42;;;23.80;64.00;;;;;;5132611;28;20192;-69
2021/08/07 11:48:25;;;;;;;2.47;1.58;;;23.80;63.90;;;;;;5132665;28;20168;-70
2021/08/07 11:50:51;;;;;;;1.70;1.20;;;23.80;63.70;;;;;;5132073;28;20213;-70
2021/08/07 11:53:18;;;;;;;4.43;1.70;;;23.80;63.70;;;;;;5132539;28;20255;-70
2021/08/07 11:55:44;;;;;;;2.70;1.40;;;23.70;63.60;;;;;;5132582;28;20627;-69
2021/08/07 11:58:11;;;;;;;2.15;1.70;;;23.80;63.50;;;;;;5131817;28;20173;-71
2021/08/07 12:00:40;;;;;;;3.47;1.75;;;23.80;63.50;;;;;;5132534;28;20183;-68
2021/08/07 12:03:10;;;;;;;2.97;1.35;;;23.90;63.30;;;;;;5132577;28;20761;-68
2021/08/07 12:05:36;;;;;;;2.80;1.42;;;23.90;63.20;;;;;;5131469;28;20208;-69
2021/08/07 12:08:07;;;;;;;1.88;1.30;;;23.90;63.10;;;;;;5132632;28;20226;-66
2021/08/07 12:10:48;;;;;;;2.58;1.42;;;23.90;63.00;;;;;;5132132;28;20180;-67
2021/08/07 12:13:36;;;;;;;2.97;1.60;;;23.90;62.80;;;;;;5114064;28;20164;-67
2021/08/07 12:16:07;;;;;;;2.15;1.23;;;24.00;62.80;;;;;;5132492;28;20172;-68
2021/08/07 12:18:41;;;;;;;2.78;1.52;;;24.00;62.90;;;;;;5131403;28;20172;-68
2021/08/07 12:21:08;;;;;;;2.63;1.38;;;24.10;62.70;;;;;;5132028;28;20766;-66
2021/08/07 12:23:44;;;;;;;2.97;1.25;;;24.10;62.50;;;;;;5132025;28;20179;-67
2021/08/07 12:26:09;;;;;;;2.67;1.38;;;24.10;62.40;;;;;;5123123;28;20213;-67
2021/08/07 12:28:35;;;;;;;5.15;1.50;;;24.10;62.40;;;;;;5111440;28;20303;-66
2021/08/07 12:31:01;;;;;;;1.98;1.45;;;24.10;62.40;;;;;;5113606;28;20201;-68
2021/08/07 12:33:34;;;;;;;5.53;1.40;;;24.20;62.90;;;;;;5114186;28;20181;-70
2021/08/07 12:36:10;;;;;;;8.90;1.92;;;24.30;63.60;;;;;;5115214;28;20623;-68
2021/08/07 12:38:39;;;;;;;4.38;1.90;;;24.30;63.60;;;;;;5098382;28;20180;-64
2021/08/07 12:41:05;;;;;;;5.20;1.52;;;24.40;63.80;;;;;;5114487;28;20707;-66
2021/08/07 12:43:31;;;;;;;5.20;1.33;;;24.30;63.90;;;;;;5096829;28;20280;-64
2021/08/07 12:45:58;;;;;;;4.72;1.38;;;24.40;64.10;;;;;;5115140;28;20205;-66
2021/08/07 12:48:23;;;;;;;4.18;1.90;;;24.40;64.10;;;;;;5114342;28;20188;-66
2021/08/07 12:51:02;;;;;;;4.03;1.60;;;24.50;64.00;;;;;;5115043;28;20173;-66
2021/08/07 12:53:51;;;;;;;2.60;1.55;;;24.40;63.90;;;;;;5114834;28;20176;-68
2021/08/07 12:56:16;;;;;;;3.97;1.60;;;24.40;64.10;;;;;;5114837;28;20180;-65